createdAt,value
2022-11-30T00:01:16.146Z,23.20
2022-11-30T00:03:43.326Z,27.02
2022-11-30T00:06:12.363Z,24.70
2022-11-30T00:08:39.045Z,24.73
2022-11-30T00:11:09.346Z,24.75
2022-11-30T00:13:35.872Z,24.27
2022-11-30T00:16:02.330Z,23.50
2022-11-30T00:18:28.831Z,26.20
2022-11-30T00:20:55.419Z,26.05
2022-11-30T00:23:21.842Z,27.38
2022-11-30T00:25:48.255Z,25.70
2022-11-30T00:28:14.775Z,25.20
2022-11-30T00:30:41.243Z,42.30
2022-11-30T00:33:07.680Z,38.83
2022-11-30T00:35:34.096Z,30.10
2022-11-30T00:38:03.104Z,26.52
2022-11-30T00:40:29.538Z,25.80
2022-11-30T00:42:56.344Z,27.15
2022-11-30T00:45:22.824Z,28.55
2022-11-30T00:47:49.264Z,34.85
2022-11-30T00:50:15.814Z,39.58
2022-11-30T00:52:42.241Z,37.28
2022-11-30T00:55:09.232Z,30.10
2022-11-30T00:57:35.651Z,49.03
2022-11-30T01:00:02.161Z,53.15
2022-11-30T01:02:28.673Z,34.00
2022-11-30T01:04:55.127Z,29.63
2022-11-30T01:07:21.615Z,26.95
2022-11-30T01:26:22.787Z,30.08
2022-11-30T01:28:53.871Z,37.38
2022-11-30T01:31:21.473Z,30.67
2022-11-30T01:45:19.614Z,26.50
2022-11-30T01:47:49.088Z,24.90
2022-11-30T01:50:21.632Z,22.73
2022-11-30T01:52:52.398Z,23.88
2022-11-30T01:55:32.336Z,22.98
2022-11-30T01:58:12.460Z,24.00
2022-11-30T02:00:44.096Z,24.70
2022-11-30T02:05:46.479Z,24.55
2022-11-30T02:08:13.276Z,24.17
2022-11-30T02:10:42.852Z,28.63
2022-11-30T02:13:33.027Z,25.65
2022-11-30T02:16:18.034Z,26.25
2022-11-30T02:19:18.611Z,24.15
2022-11-30T02:22:18.958Z,25.10
2022-11-30T02:24:57.771Z,23.63
2022-11-30T02:27:46.002Z,25.33
2022-11-30T02:30:19.078Z,25.63
2022-11-30T02:32:51.174Z,25.25
2022-11-30T02:35:21.464Z,23.42
2022-11-30T02:37:51.655Z,23.30
2022-11-30T02:40:19.130Z,21.52
2022-11-30T02:42:46.433Z,23.88
2022-11-30T02:45:13.224Z,22.17
2022-11-30T02:48:04.509Z,21.58
2022-11-30T02:50:39.792Z,21.13
2022-11-30T02:53:08.720Z,18.10
2022-11-30T02:55:37.700Z,17.23
2022-11-30T02:58:04.237Z,18.27
2022-11-30T03:00:30.747Z,18.35
2022-11-30T03:02:57.335Z,19.75
2022-11-30T03:05:24.270Z,20.05
2022-11-30T03:07:50.865Z,22.40
2022-11-30T03:10:17.331Z,26.55
2022-11-30T03:12:43.781Z,25.80
2022-11-30T03:15:10.654Z,25.40
2022-11-30T03:17:37.129Z,23.17
2022-11-30T03:20:04.406Z,26.33
2022-11-30T03:22:31.008Z,23.92
2022-11-30T03:24:57.477Z,25.85
2022-11-30T03:27:23.953Z,24.65
2022-11-30T03:29:50.395Z,26.08
2022-11-30T03:32:16.830Z,26.08
2022-11-30T03:34:43.243Z,23.58
2022-11-30T03:37:09.689Z,22.80
2022-11-30T03:39:36.095Z,20.90
2022-11-30T03:42:02.587Z,20.65
2022-11-30T03:44:29.886Z,19.05
2022-11-30T03:46:56.307Z,20.58
2022-11-30T03:49:22.703Z,21.35
2022-11-30T03:51:49.110Z,20.23
2022-11-30T03:54:15.574Z,18.92
2022-11-30T03:56:41.995Z,19.67
2022-11-30T03:59:08.422Z,18.05
2022-11-30T04:01:36.204Z,17.40
2022-11-30T04:04:02.885Z,14.48
2022-11-30T04:06:29.429Z,17.23
2022-11-30T04:08:55.896Z,19.02
2022-11-30T04:11:22.368Z,26.42
2022-11-30T04:13:48.815Z,25.60
2022-11-30T04:16:15.423Z,20.33
2022-11-30T04:18:42.075Z,19.48
2022-11-30T04:21:09.824Z,18.08
2022-11-30T04:23:38.295Z,17.63
2022-11-30T04:26:06.320Z,17.27
2022-11-30T04:28:33.102Z,17.02
2022-11-30T04:31:00.884Z,17.92
2022-11-30T04:33:28.279Z,17.70
2022-11-30T04:35:56.536Z,17.42
2022-11-30T04:38:24.080Z,17.92
2022-11-30T04:40:50.597Z,18.75
2022-11-30T04:43:17.295Z,18.52
2022-11-30T04:45:44.895Z,22.10
2022-11-30T04:48:11.579Z,19.58
2022-11-30T04:50:39.329Z,18.48
2022-11-30T04:53:06.770Z,23.40
2022-11-30T04:55:33.494Z,26.23
2022-11-30T04:57:59.914Z,23.88
2022-11-30T05:00:26.404Z,25.50
2022-11-30T05:02:53.436Z,26.30
2022-11-30T05:05:20.015Z,21.77
2022-11-30T05:07:49.803Z,20.13
2022-11-30T05:10:16.452Z,25.55
2022-11-30T05:12:42.855Z,20.83
2022-11-30T05:15:09.895Z,22.60
2022-11-30T05:17:36.335Z,23.27
2022-11-30T05:20:02.873Z,24.50
2022-11-30T05:22:29.343Z,22.00
2022-11-30T05:24:55.740Z,23.45
2022-11-30T05:27:22.816Z,23.00
2022-11-30T05:29:49.540Z,23.20
2022-11-30T05:32:15.946Z,22.85
2022-11-30T05:34:50.774Z,26.77
2022-11-30T05:37:18.871Z,24.90
2022-11-30T05:39:45.280Z,22.13
2022-11-30T05:42:11.687Z,25.23
2022-11-30T05:44:38.129Z,23.35
2022-11-30T05:47:04.732Z,25.27
2022-11-30T05:49:31.201Z,23.45
2022-11-30T05:51:57.620Z,30.35
2022-11-30T05:54:24.029Z,28.75
2022-11-30T05:56:54.704Z,30.73
2022-11-30T05:59:21.570Z,29.60
2022-11-30T06:01:48.140Z,25.75
2022-11-30T06:04:14.748Z,26.08
2022-11-30T06:06:41.233Z,20.88
2022-11-30T06:09:07.719Z,19.98
2022-11-30T06:11:34.194Z,19.02
2022-11-30T06:14:00.639Z,19.58
2022-11-30T06:16:27.144Z,21.48
2022-11-30T06:18:53.619Z,20.48
2022-11-30T06:21:24.421Z,20.75
2022-11-30T06:23:51.776Z,19.63
2022-11-30T06:26:18.553Z,22.42
2022-11-30T06:28:48.182Z,20.45
2022-11-30T06:31:15.984Z,21.92
2022-11-30T06:33:42.616Z,20.00
2022-11-30T06:36:09.614Z,22.30
2022-11-30T06:38:36.193Z,25.55
2022-11-30T06:41:07.935Z,23.23
2022-11-30T06:43:36.470Z,28.38
2022-11-30T06:46:03.854Z,22.30
2022-11-30T06:48:30.635Z,21.65
2022-11-30T06:50:58.453Z,24.95
2022-11-30T06:53:25.300Z,24.60
2022-11-30T06:55:52.057Z,26.80
2022-11-30T06:58:18.963Z,27.75
2022-11-30T07:00:46.226Z,25.73
2022-11-30T07:03:12.953Z,33.85
2022-11-30T07:05:43.773Z,40.28
2022-11-30T07:08:11.106Z,31.52
2022-11-30T07:10:45.869Z,34.72
2022-11-30T07:13:18.100Z,36.20
2022-11-30T07:15:45.660Z,26.63
2022-11-30T07:18:12.230Z,29.45
2022-11-30T07:20:39.259Z,33.85
2022-11-30T07:23:24.540Z,32.83
2022-11-30T07:26:06.872Z,32.90
2022-11-30T07:28:35.046Z,31.15
2022-11-30T07:31:03.048Z,32.47
2022-11-30T07:33:31.424Z,26.95
2022-11-30T07:35:58.007Z,27.52
2022-11-30T07:38:24.440Z,32.10
2022-11-30T07:40:50.912Z,25.58
2022-11-30T07:43:17.660Z,33.80
2022-11-30T07:45:51.595Z,33.90
2022-11-30T07:48:18.023Z,30.35
2022-11-30T07:50:44.526Z,34.85
2022-11-30T07:53:10.934Z,34.60
2022-11-30T07:55:37.375Z,37.65
2022-11-30T07:58:03.796Z,37.80
2022-11-30T08:00:30.283Z,28.92
2022-11-30T08:02:56.720Z,34.72
2022-11-30T08:05:23.795Z,32.72
2022-11-30T08:07:52.161Z,28.95
2022-11-30T08:10:20.607Z,29.02
2022-11-30T08:12:48.240Z,31.58
2022-11-30T08:15:20.185Z,29.63
2022-11-30T08:17:50.099Z,34.35
2022-11-30T08:20:16.734Z,32.35
2022-11-30T08:22:43.308Z,30.50
2022-11-30T08:25:09.764Z,28.75
2022-11-30T08:27:36.196Z,28.88
2022-11-30T08:30:02.639Z,33.17
2022-11-30T08:32:29.061Z,31.17
2022-11-30T08:34:55.599Z,31.25
2022-11-30T08:37:21.992Z,35.40
2022-11-30T08:39:48.383Z,32.70
2022-11-30T08:42:14.947Z,34.55
2022-11-30T08:44:41.374Z,37.10
2022-11-30T08:47:07.868Z,37.08
2022-11-30T08:49:34.811Z,38.47
2022-11-30T08:54:48.801Z,41.95
2022-11-30T08:57:20.428Z,46.58
2022-11-30T08:59:52.922Z,44.20
2022-11-30T09:02:20.057Z,44.30
2022-11-30T09:04:49.043Z,43.17
2022-11-30T09:07:15.984Z,42.53
2022-11-30T09:09:42.470Z,42.72
2022-11-30T09:12:08.988Z,45.33
2022-11-30T09:14:35.540Z,47.28
2022-11-30T09:17:02.016Z,46.22
2022-11-30T09:19:28.429Z,41.50
2022-11-30T09:21:54.847Z,44.85
2022-11-30T09:24:21.384Z,54.20
2022-11-30T09:26:48.101Z,69.00
2022-11-30T09:29:14.591Z,141.82
2022-11-30T09:31:41.077Z,124.13
2022-11-30T09:34:07.480Z,136.68
2022-11-30T09:36:34.115Z,67.32
2022-11-30T09:39:01.010Z,49.50
2022-11-30T09:41:36.941Z,47.03
2022-11-30T09:44:12.501Z,46.20
2022-11-30T09:46:54.955Z,43.85
2022-11-30T09:49:31.549Z,44.35
2022-11-30T09:52:00.726Z,44.88
2022-11-30T09:54:39.414Z,52.10
2022-11-30T09:57:34.721Z,64.10
2022-11-30T10:00:04.847Z,57.38
2022-11-30T10:02:34.781Z,59.67
2022-11-30T10:05:01.716Z,53.35
2022-11-30T10:07:51.075Z,53.40
2022-11-30T10:10:44.622Z,48.72
2022-11-30T10:13:23.790Z,47.70
2022-11-30T10:16:12.664Z,45.58
2022-11-30T10:19:12.839Z,50.15
2022-11-30T10:21:42.276Z,46.33
2022-11-30T10:24:29.532Z,40.45
2022-11-30T10:26:58.007Z,37.55
2022-11-30T10:29:37.856Z,40.85
2022-11-30T10:32:12.078Z,44.63
2022-11-30T10:34:40.254Z,45.45
2022-11-30T10:37:14.937Z,43.85
2022-11-30T10:40:03.076Z,40.08
2022-11-30T10:42:46.634Z,44.28
2022-11-30T10:45:21.882Z,38.30
2022-11-30T10:48:19.164Z,38.22
2022-11-30T10:50:45.909Z,38.25
2022-11-30T10:53:13.001Z,37.45
2022-11-30T10:55:48.476Z,37.95
2022-11-30T10:58:17.739Z,44.53
2022-11-30T11:01:03.365Z,39.58
2022-11-30T11:03:30.475Z,39.05
2022-11-30T11:06:21.948Z,42.75
2022-11-30T11:08:48.493Z,43.22
2022-11-30T11:11:29.988Z,41.53
2022-11-30T11:14:14.525Z,39.05
2022-11-30T11:16:54.985Z,45.72
2022-11-30T11:19:36.811Z,39.30
2022-11-30T11:22:06.756Z,43.97
2022-11-30T11:24:34.270Z,44.55
2022-11-30T11:27:01.034Z,39.15
2022-11-30T11:29:33.611Z,42.95
2022-11-30T11:32:24.911Z,44.25
2022-11-30T11:34:52.205Z,44.25
2022-11-30T11:37:33.822Z,45.65
2022-11-30T11:42:43.131Z,43.72
2022-11-30T11:45:22.487Z,43.92
2022-11-30T11:48:11.790Z,42.30
2022-11-30T11:53:53.241Z,45.85
2022-11-30T11:56:33.839Z,41.53
2022-11-30T11:59:09.479Z,45.47
2022-11-30T12:02:13.972Z,46.97
2022-11-30T12:04:43.902Z,46.85
2022-11-30T12:07:45.799Z,48.03
2022-11-30T12:13:22.029Z,47.22
2022-11-30T12:16:17.120Z,46.45
2022-11-30T12:19:17.350Z,46.05
2022-11-30T12:22:02.025Z,46.55
2022-11-30T12:24:55.822Z,43.30
2022-11-30T12:27:56.012Z,47.30
2022-11-30T12:30:28.467Z,45.05
2022-11-30T12:33:11.970Z,46.03
2022-11-30T12:36:22.869Z,48.33
2022-11-30T12:38:58.795Z,45.40
2022-11-30T12:41:35.851Z,44.63
2022-11-30T12:44:04.937Z,44.47
2022-11-30T12:47:00.701Z,44.38
2022-11-30T12:49:45.258Z,43.78
2022-11-30T12:52:42.562Z,43.33
2022-11-30T12:55:30.316Z,41.20
2022-11-30T12:57:56.681Z,39.33
2022-11-30T13:00:25.197Z,41.25
2022-11-30T13:03:10.690Z,40.83
2022-11-30T13:05:44.821Z,34.25
2022-11-30T13:08:25.629Z,34.33
2022-11-30T13:10:57.242Z,36.60
2022-11-30T13:13:31.385Z,33.70
2022-11-30T13:15:59.686Z,32.20
2022-11-30T13:18:27.207Z,34.22
2022-11-30T13:21:06.570Z,38.80
2022-11-30T13:24:10.329Z,38.67
2022-11-30T13:27:15.430Z,38.40
2022-11-30T13:29:50.139Z,34.90
2022-11-30T13:32:55.447Z,36.28
2022-11-30T13:35:29.537Z,38.95
2022-11-30T13:41:08.889Z,33.70
2022-11-30T13:43:41.576Z,28.83
2022-11-30T13:46:12.265Z,29.65
2022-11-30T13:48:41.194Z,31.88
2022-11-30T13:51:08.484Z,27.75
2022-11-30T13:53:39.195Z,30.02
2022-11-30T13:56:17.419Z,28.40
2022-11-30T13:59:24.561Z,29.83
2022-11-30T14:04:45.196Z,34.65
2022-11-30T14:07:34.688Z,29.13
2022-11-30T14:10:01.776Z,30.70
2022-11-30T14:12:34.729Z,29.95
2022-11-30T14:15:02.481Z,28.95
2022-11-30T14:17:37.927Z,31.60
2022-11-30T14:20:22.131Z,29.05
2022-11-30T14:22:48.762Z,29.20
2022-11-30T14:25:17.408Z,29.48
2022-11-30T14:27:44.466Z,27.27
2022-11-30T14:30:18.766Z,29.67
2022-11-30T14:32:52.631Z,30.13
2022-11-30T14:35:20.451Z,39.65
2022-11-30T14:37:53.498Z,38.45
2022-11-30T14:40:22.373Z,28.50
2022-11-30T14:42:57.413Z,31.15
2022-11-30T14:45:29.509Z,32.88
2022-11-30T14:48:19.692Z,38.78
2022-11-30T14:50:51.843Z,31.13
2022-11-30T14:53:29.580Z,35.65
2022-11-30T14:56:06.931Z,34.33
2022-11-30T14:58:44.735Z,30.15
2022-11-30T15:01:20.654Z,29.52
2022-11-30T15:03:49.830Z,33.00
2022-11-30T15:06:18.784Z,28.88
2022-11-30T15:08:49.950Z,36.65
2022-11-30T15:11:17.560Z,34.75
2022-11-30T15:13:54.788Z,36.58
2022-11-30T15:16:24.998Z,37.35
2022-11-30T15:18:56.501Z,34.72
2022-11-30T15:23:59.592Z,32.03
2022-11-30T15:26:36.909Z,30.23
2022-11-30T15:29:12.476Z,30.80
2022-11-30T15:31:43.647Z,30.35
2022-11-30T15:34:21.956Z,26.25
2022-11-30T15:36:48.638Z,28.02
2022-11-30T15:39:22.370Z,29.25
2022-11-30T15:41:57.476Z,29.90
2022-11-30T15:44:27.051Z,28.58
2022-11-30T15:47:02.515Z,30.25
2022-11-30T15:49:31.587Z,28.58
2022-11-30T15:52:14.213Z,27.95
2022-11-30T15:54:48.170Z,25.95
2022-11-30T15:57:16.042Z,30.25
2022-11-30T15:59:42.894Z,31.20
2022-11-30T16:02:48.143Z,31.55
2022-11-30T16:05:18.034Z,31.30
2022-11-30T16:07:57.075Z,32.33
2022-11-30T16:10:27.503Z,32.72
2022-11-30T16:12:55.427Z,32.85
2022-11-30T16:15:23.622Z,33.03
2022-11-30T16:17:51.381Z,32.45
2022-11-30T16:20:17.946Z,33.58
2022-11-30T16:22:46.580Z,30.52
2022-11-30T16:25:15.881Z,28.48
2022-11-30T16:27:43.231Z,25.75
2022-11-30T16:30:14.274Z,26.80
2022-11-30T16:32:40.865Z,26.40
2022-11-30T16:35:34.457Z,24.08
2022-11-30T16:38:01.093Z,23.65
2022-11-30T16:40:27.489Z,24.60
2022-11-30T16:42:53.915Z,25.02
2022-11-30T16:45:25.180Z,26.73
2022-11-30T16:47:52.320Z,27.42
2022-11-30T16:50:19.826Z,26.38
2022-11-30T16:52:46.550Z,23.85
2022-11-30T16:55:19.166Z,26.27
2022-11-30T16:57:46.390Z,23.35
2022-11-30T17:00:15.667Z,24.65
2022-11-30T17:02:48.393Z,25.40
2022-11-30T17:05:15.231Z,24.88
2022-11-30T17:07:42.051Z,26.83
2022-11-30T17:10:08.962Z,30.63
2022-11-30T17:12:35.652Z,30.63
2022-11-30T17:15:03.782Z,27.52
2022-11-30T17:17:30.388Z,29.27
2022-11-30T17:19:56.827Z,27.98
2022-11-30T17:22:23.282Z,27.35
2022-11-30T17:24:49.899Z,30.08
2022-11-30T17:27:16.487Z,31.17
2022-11-30T17:29:43.520Z,27.75
2022-11-30T17:32:10.021Z,27.55
2022-11-30T17:34:36.559Z,27.63
2022-11-30T17:37:03.066Z,27.58
2022-11-30T17:39:29.587Z,25.27
2022-11-30T17:41:56.045Z,23.67
2022-11-30T17:44:22.504Z,22.88
2022-11-30T17:46:48.959Z,26.38
2022-11-30T17:49:15.410Z,22.00
2022-11-30T17:51:41.854Z,24.23
2022-11-30T17:54:08.614Z,25.90
2022-11-30T17:56:35.794Z,23.95
2022-11-30T17:59:02.537Z,25.65
2022-11-30T18:01:29.043Z,24.10
2022-11-30T18:03:56.356Z,24.33
2022-11-30T18:06:22.896Z,24.67
2022-11-30T18:08:49.626Z,30.15
2022-11-30T18:11:21.879Z,31.75
2022-11-30T18:13:51.599Z,33.42
2022-11-30T18:16:20.900Z,42.13
2022-11-30T18:18:48.671Z,49.03
2022-11-30T18:21:18.868Z,41.53
2022-11-30T18:23:45.670Z,34.90
2022-11-30T18:26:15.081Z,34.35
2022-11-30T18:28:41.802Z,29.92
2022-11-30T18:31:08.718Z,30.38
2022-11-30T18:33:36.731Z,27.33
2022-11-30T18:36:07.229Z,26.73
2022-11-30T18:38:38.138Z,43.22
2022-11-30T18:41:05.557Z,39.03
2022-11-30T18:43:33.409Z,51.00
2022-11-30T18:46:08.800Z,57.78
2022-11-30T18:48:35.942Z,41.28
2022-11-30T18:51:14.219Z,32.22
2022-11-30T18:53:41.605Z,32.42
2022-11-30T18:56:29.859Z,34.75
2022-11-30T18:58:58.507Z,31.85
2022-11-30T19:01:25.849Z,28.90
2022-11-30T19:03:58.030Z,26.08
2022-11-30T19:06:28.142Z,28.98
2022-11-30T19:08:54.585Z,36.67
2022-11-30T19:11:22.052Z,46.17
2022-11-30T19:13:52.727Z,41.13
2022-11-30T19:16:19.274Z,46.67
2022-11-30T19:18:45.907Z,47.75
2022-11-30T19:21:15.185Z,61.35
2022-11-30T19:23:41.986Z,55.13
2022-11-30T19:26:10.004Z,39.80
2022-11-30T19:28:37.917Z,31.50
2022-11-30T19:31:09.957Z,36.47
2022-11-30T19:33:37.912Z,32.83
2022-11-30T19:36:06.627Z,40.92
2022-11-30T19:38:33.106Z,50.10
2022-11-30T19:40:59.513Z,47.58
2022-11-30T19:43:25.972Z,45.10
2022-11-30T19:45:52.419Z,42.50
2022-11-30T19:48:18.841Z,37.42
2022-11-30T19:50:45.400Z,29.60
2022-11-30T19:53:11.809Z,30.40
2022-11-30T19:55:40.143Z,31.75
2022-11-30T19:58:06.551Z,33.05
2022-11-30T20:00:32.969Z,35.83
2022-11-30T20:02:59.534Z,50.30
2022-11-30T20:05:25.973Z,40.10
2022-11-30T20:07:52.406Z,37.40
2022-11-30T20:10:18.929Z,34.05
2022-11-30T20:12:45.360Z,37.42
2022-11-30T20:15:12.054Z,45.40
2022-11-30T20:17:38.470Z,40.13
2022-11-30T20:20:05.616Z,35.35
2022-11-30T20:22:33.288Z,38.90
2022-11-30T20:24:59.694Z,44.25
2022-11-30T20:27:26.228Z,42.58
2022-11-30T20:29:52.660Z,44.83
2022-11-30T20:32:19.754Z,47.40
2022-11-30T20:34:46.538Z,48.80
2022-11-30T20:37:13.448Z,47.50
2022-11-30T20:39:45.672Z,39.38
2022-11-30T20:42:12.624Z,36.08
2022-11-30T20:44:39.085Z,34.33
2022-11-30T20:47:05.506Z,35.05
2022-11-30T20:49:31.996Z,36.67
2022-11-30T20:51:58.439Z,41.83
2022-11-30T20:54:24.902Z,37.63
2022-11-30T20:56:51.670Z,34.83
2022-11-30T20:59:26.280Z,31.67
2022-11-30T21:01:54.887Z,31.88
2022-11-30T21:04:23.626Z,34.88
2022-11-30T21:06:50.305Z,37.25
2022-11-30T21:09:18.337Z,39.70
2022-11-30T21:11:45.164Z,41.50
2022-11-30T21:14:12.627Z,40.97
2022-11-30T21:16:40.106Z,51.53
2022-11-30T21:19:06.574Z,50.05
2022-11-30T21:21:35.239Z,55.38
2022-11-30T21:24:05.364Z,50.55
2022-11-30T21:26:37.447Z,48.25
2022-11-30T21:29:06.877Z,43.38
2022-11-30T21:31:33.967Z,42.03
2022-11-30T21:34:01.433Z,39.92
2022-11-30T21:36:28.163Z,46.72
2022-11-30T21:39:04.110Z,46.05
2022-11-30T21:41:31.913Z,45.30
2022-11-30T21:43:58.409Z,39.53
2022-11-30T21:46:24.879Z,36.53
2022-11-30T21:48:51.470Z,35.33
2022-11-30T21:51:24.008Z,37.90
2022-11-30T21:53:53.656Z,42.90
2022-11-30T21:56:22.629Z,38.38
2022-11-30T21:58:50.477Z,39.65
2022-11-30T22:01:19.518Z,43.20
2022-11-30T22:03:46.163Z,44.15
2022-11-30T22:06:18.201Z,38.38
2022-11-30T22:08:45.992Z,38.70
2022-11-30T22:11:16.180Z,51.35
2022-11-30T22:13:43.589Z,44.60
2022-11-30T22:16:12.840Z,41.97
2022-11-30T22:18:40.623Z,44.42
2022-11-30T22:21:09.073Z,45.45
2022-11-30T22:23:37.285Z,52.38
2022-11-30T22:26:14.070Z,63.70
2022-11-30T22:28:46.011Z,57.67
2022-11-30T22:31:14.777Z,50.30
2022-11-30T22:33:42.996Z,47.13
2022-11-30T22:36:21.120Z,47.28
2022-11-30T22:38:52.720Z,49.20
2022-11-30T22:43:46.492Z,44.28
2022-11-30T22:46:18.914Z,45.33
2022-11-30T22:48:46.653Z,51.67
2022-11-30T22:51:19.065Z,51.22
2022-11-30T22:53:49.320Z,45.65
2022-11-30T22:56:17.428Z,45.40
2022-11-30T22:58:45.022Z,43.88
2022-11-30T23:01:14.473Z,43.95
2022-11-30T23:03:42.734Z,39.42
2022-11-30T23:06:10.278Z,40.97
2022-11-30T23:08:37.823Z,41.15
2022-11-30T23:11:07.004Z,37.58
2022-11-30T23:13:34.106Z,35.92
2022-11-30T23:16:01.067Z,39.08
2022-11-30T23:18:29.414Z,40.28
2022-11-30T23:20:57.078Z,39.65
2022-11-30T23:23:23.976Z,43.03
2022-11-30T23:25:50.735Z,49.05
2022-11-30T23:28:17.340Z,60.70
2022-11-30T23:30:43.794Z,54.58
2022-11-30T23:33:10.422Z,59.17
2022-11-30T23:35:41.925Z,60.05
2022-11-30T23:38:08.376Z,60.45
2022-11-30T23:40:34.769Z,55.40
2022-11-30T23:43:01.180Z,50.67
2022-11-30T23:45:27.570Z,42.55
2022-11-30T23:47:53.979Z,48.05
2022-11-30T23:50:20.460Z,46.58
2022-11-30T23:52:47.143Z,47.88
2022-11-30T23:55:13.535Z,44.70
2022-11-30T23:57:39.942Z,51.58
